Flight Track Log - Related Links

Times and Time Zones

All times are in EDT time to prevent confusion due to time zone crossing. See the QXE2633 flight status page for this flight to view local times or setup timezone preferences in your user account.


Time Position Orientation Groundspeed Altitude Reporting Facility
EDT Latitude Longitude Course Direction KTS MPH feet Rate Location/Type
Mon 03:31:00 PM 46.7831 -114.7346 250° West  Level FlightAware Approximate
Mon 03:32:00 PM 46.7667 -114.8432 270° West  Level FlightAware Approximate
Mon 03:33:00 PM 46.7705 -114.9603 256° West  Level FlightAware Approximate
Mon 03:34:00 PM 46.7550 -115.0702 256° West  Level FlightAware Approximate
Mon 03:35:00 PM 46.8051 -115.1561 310° West  Level FlightAware Approximate
Mon 03:36:00 PM 46.7908 -115.2671 256° West  Level Estimated
Mon 03:37:00 PM 46.7948 -115.3798 273° West  Level FlightAware Approximate
Mon 03:38:00 PM 46.7801 -115.4906 254° West  Level Estimated
Mon 03:39:00 PM 46.7687 -115.6023 262° West  Level FlightAware Approximate
Mon 03:40:00 PM 46.7572 -115.7139 261° West  Level FlightAware Approximate
Mon 03:41:00 PM 46.7420 -115.8245 256° West  Level Estimated
Mon 03:42:00 PM 46.7232 -115.9339 256° West  Level FlightAware Approximate
Mon 03:43:00 PM 46.7043 -116.0432 256° West  Level FlightAware Approximate
Mon 03:44:00 PM 46.6853 -116.1524 256° West  Level FlightAware Approximate
Mon 03:45:00 PM 46.6662 -116.2616 256° West  Level FlightAware Approximate
Mon 03:46:00 PM 46.6470 -116.3707 256° West  Level FlightAware Approximate
Mon 03:47:00 PM 46.6276 -116.4797 256° West  Level FlightAware Approximate
Mon 03:48:00 PM 46.6082 -116.5886 255° West  Level FlightAware Approximate
Mon 03:49:00 PM 46.5887 -116.6974 255° West  Level FlightAware Approximate
Mon 03:50:00 PM 46.5690 -116.8062 255° West  Level FlightAware Approximate
Mon 03:51:00 PM 46.5493 -116.9149 255° West  Level FlightAware Approximate
Mon 03:52:00 PM 46.5294 -117.0235 255° West  Level FlightAware Approximate
Mon 03:53:00 PM 46.5095 -117.1320 255° West  Level FlightAware Approximate
Mon 03:54:00 PM 46.4894 -117.2405 255° West  Level FlightAware Approximate
Mon 03:55:00 PM 46.4693 -117.3488 255° West  Level FlightAware Approximate
Mon 03:56:00 PM 46.4491 -117.4571 255° West  Level FlightAware Approximate
Mon 03:57:00 PM 46.4287 -117.5653 255° West  Level FlightAware Approximate
Mon 03:58:00 PM 46.4082 -117.6735 255° West  Level FlightAware Approximate
Mon 03:59:00 PM 46.3877 -117.7815 255° West  Level FlightAware Approximate
Mon 04:00:00 PM 46.3670 -117.8895 255° West  Level FlightAware Approximate
Mon 04:01:00 PM 46.3462 -117.9974 254° West  Level FlightAware Approximate
Mon 04:02:00 PM 46.3306 -118.1070 254° West  Level Estimated
Mon 04:03:00 PM 46.3093 -118.2146 254° West  Level FlightAware Approximate
Mon 04:04:00 PM 46.2879 -118.3221 254° West  Level FlightAware Approximate
Mon 04:05:00 PM 46.2665 -118.4295 254° West  Level FlightAware Approximate
Mon 04:06:00 PM 46.2449 -118.5369 254° West  Level FlightAware Approximate
Mon 04:07:00 PM 46.2232 -118.6442 254° West  Level FlightAware Approximate
Mon 04:08:00 PM 46.2015 -118.7513 254° West  Level FlightAware Approximate
Mon 04:09:00 PM 46.1796 -118.8584 254° West  Level FlightAware Approximate
Mon 04:10:00 PM 46.1576 -118.9654 254° West  Level FlightAware Approximate
Mon 04:11:00 PM 46.1356 -119.0724 253° West  Level FlightAware Approximate
Mon 04:12:00 PM 46.1134 -119.1792 253° West  Level FlightAware Approximate
Mon 04:13:00 PM 46.0913 -119.2852 253° West  Level FlightAware Approximate
Mon 04:14:00 PM 46.0691 -119.3911 253° West  Level FlightAware Approximate
Mon 04:15:00 PM 46.0468 -119.4970 253° West  Level FlightAware Approximate
Mon 04:16:00 PM 46.0244 -119.6027 253° West  Level FlightAware Approximate
Mon 04:17:00 PM 46.0019 -119.7084 253° West  Level FlightAware Approximate
Mon 04:18:00 PM 45.9793 -119.8140 253° West  Level FlightAware Approximate
Mon 04:19:00 PM 45.9566 -119.9194 253° West  Level FlightAware Approximate
Mon 04:20:00 PM 45.9360 -120.0258 255° West  Level FlightAware Approximate
Mon 04:21:00 PM 45.9161 -120.1324 255° West  Level FlightAware Approximate
Mon 04:22:00 PM 45.8962 -120.2389 255° West  Level FlightAware Approximate
Mon 04:23:00 PM 45.8761 -120.3453 255° West  Level FlightAware Approximate
Mon 04:24:00 PM 45.8560 -120.4517 255° West  Level FlightAware Approximate
Mon 04:25:00 PM 45.8314 -120.5559 244° Southwest  Level FlightAware Approximate
Mon 04:26:00 PM 45.7988 -120.6556 253° West  Level FlightAware Approximate
Mon 04:27:00 PM 45.7763 -120.7608 253° West  Level FlightAware Approximate
Mon 04:28:00 PM 45.7537 -120.8660 253° West  Level FlightAware Approximate
Mon 04:29:00 PM 45.7299 -120.9705 252° West  Level FlightAware Approximate
Mon 04:30:00 PM 45.7058 -121.0749 252° West  Level FlightAware Approximate
Mon 04:31:00 PM 45.6922 -121.1815 250° West  Level FlightAware Approximate
Mon 04:32:00 PM 45.6664 -121.2850 250° West  Level FlightAware Approximate
Mon 04:33:00 PM 45.6405 -121.3883 250° West  Level FlightAware Approximate
Mon 04:34:00 PM 45.6136 -121.4910 240° Southwest  Level FlightAware Approximate
Mon 04:35:00 PM 45.5780 -121.5879 250° West  Level FlightAware Approximate
Mon 04:36:00 PM 45.5522 -121.6911 250° West  Level FlightAware Approximate
Mon 04:37:00 PM 45.5279 -121.7940 248° West  Level FlightAware Approximate

Login

Don't have an account? Register now (free) for customized features, flight alerts, and more!